sensor_id;sensor_type;location;lat;lon;timestamp;pressure;altitude;pressure_sealevel;temperature;humidity
12897;BME280;6516;35.028;32.372;2023-02-20T00:01:04;100919.94;;;12.16;75.75
12897;BME280;6516;35.028;32.372;2023-02-20T00:03:32;100919.09;;;12.16;75.05
12897;BME280;6516;35.028;32.372;2023-02-20T00:06:00;100912.88;;;12.20;74.54
12897;BME280;6516;35.028;32.372;2023-02-20T00:08:28;100916.34;;;12.22;75.00
12897;BME280;6516;35.028;32.372;2023-02-20T00:10:55;100913.69;;;12.23;75.00
12897;BME280;6516;35.028;32.372;2023-02-20T00:13:23;100906.63;;;12.27;75.08
12897;BME280;6516;35.028;32.372;2023-02-20T00:15:53;100908.34;;;12.28;75.29
12897;BME280;6516;35.028;32.372;2023-02-20T00:18:20;100912.78;;;12.26;75.67
12897;BME280;6516;35.028;32.372;2023-02-20T00:20:48;100911.06;;;12.23;75.31
12897;BME280;6516;35.028;32.372;2023-02-20T00:23:16;100905.72;;;12.28;74.04
12897;BME280;6516;35.028;32.372;2023-02-20T00:25:45;100915.34;;;12.32;74.58
12897;BME280;6516;35.028;32.372;2023-02-20T00:28:13;100910.94;;;12.34;74.75
12897;BME280;6516;35.028;32.372;2023-02-20T00:30:41;100900.38;;;12.34;74.58
12897;BME280;6516;35.028;32.372;2023-02-20T00:33:10;100901.19;;;12.37;74.53
12897;BME280;6516;35.028;32.372;2023-02-20T00:35:38;100902.03;;;12.39;74.51
12897;BME280;6516;35.028;32.372;2023-02-20T00:38:06;100899.44;;;12.38;74.84
12897;BME280;6516;35.028;32.372;2023-02-20T00:40:33;100888.88;;;12.38;74.98
12897;BME280;6516;35.028;32.372;2023-02-20T00:43:01;100895.03;;;12.37;75.21
12897;BME280;6516;35.028;32.372;2023-02-20T00:45:29;100886.28;;;12.35;75.27
12897;BME280;6516;35.028;32.372;2023-02-20T00:47:57;100881.00;;;12.33;75.45
12897;BME280;6516;35.028;32.372;2023-02-20T00:50:26;100881.91;;;12.31;75.44
12897;BME280;6516;35.028;32.372;2023-02-20T00:52:54;100879.31;;;12.28;75.78
12897;BME280;6516;35.028;32.372;2023-02-20T00:55:22;100876.66;;;12.28;75.55
12897;BME280;6516;35.028;32.372;2023-02-20T00:57:50;100873.06;;;12.35;75.57
12897;BME280;6516;35.028;32.372;2023-02-20T01:00:20;100869.72;;;12.22;76.84
12897;BME280;6516;35.028;32.372;2023-02-20T01:02:49;100869.75;;;12.21;77.65
12897;BME280;6516;35.028;32.372;2023-02-20T01:05:17;100868.84;;;12.20;77.67
12897;BME280;6516;35.028;32.372;2023-02-20T01:07:47;100867.13;;;12.18;77.51
12897;BME280;6516;35.028;32.372;2023-02-20T01:10:14;100864.53;;;12.15;77.26
12897;BME280;6516;35.028;32.372;2023-02-20T01:12:42;100868.88;;;12.17;77.04
12897;BME280;6516;35.028;32.372;2023-02-20T01:15:10;100870.66;;;12.17;76.99
12897;BME280;6516;35.028;32.372;2023-02-20T01:17:40;100871.59;;;12.14;77.53
12897;BME280;6516;35.028;32.372;2023-02-20T01:20:08;100863.56;;;12.20;76.96
12897;BME280;6516;35.028;32.372;2023-02-20T01:22:37;100864.50;;;12.18;76.67
12897;BME280;6516;35.028;32.372;2023-02-20T01:25:07;100858.28;;;12.20;76.78
12897;BME280;6516;35.028;32.372;2023-02-20T01:27:35;100862.66;;;12.23;76.13
12897;BME280;6516;35.028;32.372;2023-02-20T01:30:03;100857.38;;;12.24;75.77
12897;BME280;6516;35.028;32.372;2023-02-20T01:32:32;100863.47;;;12.26;74.86
12897;BME280;6516;35.028;32.372;2023-02-20T01:35:00;100850.25;;;12.29;74.45
12897;BME280;6516;35.028;32.372;2023-02-20T01:37:28;100858.19;;;12.29;72.74
12897;BME280;6516;35.028;32.372;2023-02-20T01:39:55;100852.88;;;12.32;73.08
12897;BME280;6516;35.028;32.372;2023-02-20T01:42:28;100852.84;;;12.34;72.75
12897;BME280;6516;35.028;32.372;2023-02-20T01:45:16;100854.56;;;12.36;72.45
12897;BME280;6516;35.028;32.372;2023-02-20T01:47:45;100851.00;;;12.39;72.43
12897;BME280;6516;35.028;32.372;2023-02-20T01:50:13;100843.03;;;12.42;72.04
12897;BME280;6516;35.028;32.372;2023-02-20T01:52:46;100843.00;;;12.45;72.01
12897;BME280;6516;35.028;32.372;2023-02-20T01:55:18;100848.22;;;12.49;71.51
12897;BME280;6516;35.028;32.372;2023-02-20T01:57:53;100847.34;;;12.49;71.34
12897;BME280;6516;35.028;32.372;2023-02-20T02:00:24;100841.97;;;12.53;70.95
12897;BME280;6516;35.028;32.372;2023-02-20T02:02:55;100847.34;;;12.49;71.52
12897;BME280;6516;35.028;32.372;2023-02-20T02:05:25;100839.59;;;12.35;73.14
12897;BME280;6516;35.028;32.372;2023-02-20T02:07:55;100848.31;;;12.42;73.22
12897;BME280;6516;35.028;32.372;2023-02-20T02:10:27;100854.59;;;12.35;73.01
12897;BME280;6516;35.028;32.372;2023-02-20T02:13:00;100847.63;;;12.29;73.98
12897;BME280;6516;35.028;32.372;2023-02-20T02:15:28;100847.63;;;12.28;73.90
12897;BME280;6516;35.028;32.372;2023-02-20T02:27:55;100840.63;;;12.27;74.42
12897;BME280;6516;35.028;32.372;2023-02-20T02:34:30;100834.53;;;12.22;75.10
12897;BME280;6516;35.028;32.372;2023-02-20T02:37:15;100841.59;;;12.20;75.12
12897;BME280;6516;35.028;32.372;2023-02-20T02:39:51;100838.13;;;12.15;74.72
12897;BME280;6516;35.028;32.372;2023-02-20T02:42:28;100838.06;;;12.19;73.91
12897;BME280;6516;35.028;32.372;2023-02-20T02:45:05;100833.69;;;12.20;74.61
12897;BME280;6516;35.028;32.372;2023-02-20T02:47:43;100840.06;;;12.01;76.54
12897;BME280;6516;35.028;32.372;2023-02-20T02:50:17;100833.06;;;11.98;76.24
12897;BME280;6516;35.028;32.372;2023-02-20T02:52:49;100828.69;;;11.96;76.27
12897;BME280;6516;35.028;32.372;2023-02-20T02:55:21;100838.41;;;11.95;75.70
12897;BME280;6516;35.028;32.372;2023-02-20T02:57:50;100832.16;;;12.01;74.64
12897;BME280;6516;35.028;32.372;2023-02-20T03:00:22;100833.03;;;12.01;74.59
12897;BME280;6516;35.028;32.372;2023-02-20T03:02:57;100833.88;;;12.05;73.84
12897;BME280;6516;35.028;32.372;2023-02-20T03:05:32;100830.28;;;12.09;73.32
12897;BME280;6516;35.028;32.372;2023-02-20T03:08:17;100837.28;;;12.13;73.28
12897;BME280;6516;35.028;32.372;2023-02-20T03:10:57;100830.19;;;12.18;73.30
12897;BME280;6516;35.028;32.372;2023-02-20T03:13:31;100826.59;;;12.22;73.51
12897;BME280;6516;35.028;32.372;2023-02-20T03:16:21;100830.16;;;12.19;73.46
12897;BME280;6516;35.028;32.372;2023-02-20T03:18:57;100831.06;;;12.18;73.68
12897;BME280;6516;35.028;32.372;2023-02-20T03:21:30;100829.28;;;12.19;73.54
12897;BME280;6516;35.028;32.372;2023-02-20T03:24:02;100833.69;;;12.20;72.91
12897;BME280;6516;35.028;32.372;2023-02-20T03:26:33;100831.88;;;12.22;73.29
12897;BME280;6516;35.028;32.372;2023-02-20T03:29:05;100840.63;;;12.25;73.18
12897;BME280;6516;35.028;32.372;2023-02-20T03:31:38;100834.50;;;12.25;73.30
12897;BME280;6516;35.028;32.372;2023-02-20T03:34:09;100833.59;;;12.26;72.81
12897;BME280;6516;35.028;32.372;2023-02-20T03:37:01;100835.41;;;12.22;71.73
12897;BME280;6516;35.028;32.372;2023-02-20T03:39:51;100828.31;;;12.24;72.01
12897;BME280;6516;35.028;32.372;2023-02-20T03:42:41;100835.34;;;12.25;72.35
12897;BME280;6516;35.028;32.372;2023-02-20T03:45:31;100834.44;;;12.26;72.34
12897;BME280;6516;35.028;32.372;2023-02-20T03:48:05;100835.34;;;12.27;72.12
12897;BME280;6516;35.028;32.372;2023-02-20T03:50:36;100831.81;;;12.26;72.92
12897;BME280;6516;35.028;32.372;2023-02-20T03:53:22;100826.59;;;12.23;72.99
12897;BME280;6516;35.028;32.372;2023-02-20T03:55:54;100828.34;;;12.23;73.24
12897;BME280;6516;35.028;32.372;2023-02-20T03:58:26;100827.56;;;12.16;73.79
12897;BME280;6516;35.028;32.372;2023-02-20T04:00:57;100823.25;;;12.11;74.07
12897;BME280;6516;35.028;32.372;2023-02-20T04:03:32;100828.56;;;12.08;74.48
12897;BME280;6516;35.028;32.372;2023-02-20T04:06:05;100825.03;;;12.06;74.93
12897;BME280;6516;35.028;32.372;2023-02-20T04:08:37;100821.59;;;12.02;74.51
12897;BME280;6516;35.028;32.372;2023-02-20T04:11:13;100819.03;;;11.98;74.56
12897;BME280;6516;35.028;32.372;2023-02-20T04:13:44;100826.94;;;11.98;74.63
12897;BME280;6516;35.028;32.372;2023-02-20T04:16:14;100828.69;;;11.99;73.92
12897;BME280;6516;35.028;32.372;2023-02-20T04:18:42;100826.03;;;11.99;74.43
12897;BME280;6516;35.028;32.372;2023-02-20T04:21:17;100826.06;;;11.97;74.88
12897;BME280;6516;35.028;32.372;2023-02-20T04:23:49;100829.59;;;11.95;74.46
12897;BME280;6516;35.028;32.372;2023-02-20T04:26:25;100830.41;;;12.01;73.13
12897;BME280;6516;35.028;32.372;2023-02-20T04:28:53;100833.88;;;12.05;73.72
12897;BME280;6516;35.028;32.372;2023-02-20T04:31:21;100836.56;;;12.00;74.52
12897;BME280;6516;35.028;32.372;2023-02-20T04:33:49;100834.78;;;12.01;74.28
12897;BME280;6516;35.028;32.372;2023-02-20T04:36:17;100838.31;;;12.01;73.73
12897;BME280;6516;35.028;32.372;2023-02-20T04:38:45;100833.03;;;12.01;73.65
12897;BME280;6516;35.028;32.372;2023-02-20T04:41:13;100827.75;;;12.01;73.94
12897;BME280;6516;35.028;32.372;2023-02-20T04:43:42;100834.78;;;12.02;74.11
12897;BME280;6516;35.028;32.372;2023-02-20T04:46:10;100826.94;;;11.99;74.62
12897;BME280;6516;35.028;32.372;2023-02-20T04:48:38;100833.06;;;12.00;75.22
12897;BME280;6516;35.028;32.372;2023-02-20T04:51:06;100832.22;;;11.98;75.75
12897;BME280;6516;35.028;32.372;2023-02-20T04:53:33;100835.72;;;11.97;75.75
12897;BME280;6516;35.028;32.372;2023-02-20T04:56:01;100829.56;;;11.99;75.77
12897;BME280;6516;35.028;32.372;2023-02-20T04:58:29;100835.69;;;12.01;75.44
12897;BME280;6516;35.028;32.372;2023-02-20T05:01:00;100826.88;;;12.01;75.70
12897;BME280;6516;35.028;32.372;2023-02-20T05:03:27;100832.97;;;12.06;75.03
12897;BME280;6516;35.028;32.372;2023-02-20T05:05:55;100841.72;;;12.11;74.93
12897;BME280;6516;35.028;32.372;2023-02-20T05:08:23;100841.66;;;12.14;74.65
12897;BME280;6516;35.028;32.372;2023-02-20T05:10:50;100836.31;;;12.20;74.46
12897;BME280;6516;35.028;32.372;2023-02-20T05:13:18;100837.97;;;12.27;74.88
12897;BME280;6516;35.028;32.372;2023-02-20T05:15:46;100839.59;;;12.35;74.44
12897;BME280;6516;35.028;32.372;2023-02-20T05:18:24;100837.81;;;12.39;74.04
12897;BME280;6516;35.028;32.372;2023-02-20T05:20:52;100839.53;;;12.41;74.13
12897;BME280;6516;35.028;32.372;2023-02-20T05:23:37;100849.09;;;12.50;74.17
12897;BME280;6516;35.028;32.372;2023-02-20T05:26:08;100834.91;;;12.57;74.01
12897;BME280;6516;35.028;32.372;2023-02-20T05:28:36;100834.78;;;12.66;73.71
12897;BME280;6516;35.028;32.372;2023-02-20T05:31:06;100846.06;;;12.74;73.04
12897;BME280;6516;35.028;32.372;2023-02-20T05:33:35;100844.97;;;12.87;72.66
12897;BME280;6516;35.028;32.372;2023-02-20T05:36:03;100846.63;;;12.95;72.29
12897;BME280;6516;35.028;32.372;2023-02-20T05:38:31;100853.56;;;13.04;71.60
12897;BME280;6516;35.028;32.372;2023-02-20T05:40:59;100841.06;;;13.13;71.58
12897;BME280;6516;35.028;32.372;2023-02-20T05:43:27;100846.19;;;13.22;71.51
12897;BME280;6516;35.028;32.372;2023-02-20T05:45:55;100847.00;;;13.26;71.38
12897;BME280;6516;35.028;32.372;2023-02-20T05:48:23;100848.59;;;13.34;71.42
12897;BME280;6516;35.028;32.372;2023-02-20T05:50:52;100850.28;;;13.40;71.36
12897;BME280;6516;35.028;32.372;2023-02-20T05:53:19;100853.63;;;13.49;71.15
12897;BME280;6516;35.028;32.372;2023-02-20T05:55:47;100852.59;;;13.58;70.77
12897;BME280;6516;35.028;32.372;2023-02-20T05:58:15;100853.34;;;13.64;70.22
12897;BME280;6516;35.028;32.372;2023-02-20T06:00:43;100851.28;;;13.80;70.22
12897;BME280;6516;35.028;32.372;2023-02-20T06:03:12;100858.91;;;13.95;70.35
12897;BME280;6516;35.028;32.372;2023-02-20T06:05:41;100861.16;;;14.14;70.34
12897;BME280;6516;35.028;32.372;2023-02-20T06:08:10;100861.69;;;14.33;70.19
12897;BME280;6516;35.028;32.372;2023-02-20T06:10:38;100858.56;;;14.52;69.86
12897;BME280;6516;35.028;32.372;2023-02-20T06:13:06;100854.75;;;14.64;67.72
12897;BME280;6516;35.028;32.372;2023-02-20T06:15:34;100851.78;;;14.79;66.70
12897;BME280;6516;35.028;32.372;2023-02-20T06:18:02;100858.66;;;14.86;65.42
12897;BME280;6516;35.028;32.372;2023-02-20T06:20:30;100853.97;;;14.98;64.23
12897;BME280;6516;35.028;32.372;2023-02-20T06:22:57;100856.63;;;14.98;63.30
12897;BME280;6516;35.028;32.372;2023-02-20T06:25:27;100866.97;;;15.07;63.52
12897;BME280;6516;35.028;32.372;2023-02-20T06:27:55;100855.09;;;15.22;64.15
12897;BME280;6516;35.028;32.372;2023-02-20T06:30:22;100862.63;;;15.40;63.73
12897;BME280;6516;35.028;32.372;2023-02-20T06:32:50;100861.28;;;15.57;61.10
12897;BME280;6516;35.028;32.372;2023-02-20T06:35:18;100874.25;;;15.68;60.69
12897;BME280;6516;35.028;32.372;2023-02-20T06:37:47;100869.28;;;15.88;59.18
12897;BME280;6516;35.028;32.372;2023-02-20T06:40:14;100870.69;;;16.01;57.89
12897;BME280;6516;35.028;32.372;2023-02-20T06:42:44;100865.22;;;16.05;57.54
12897;BME280;6516;35.028;32.372;2023-02-20T06:45:12;100870.22;;;16.17;57.70
12897;BME280;6516;35.028;32.372;2023-02-20T06:47:39;100871.19;;;16.44;57.70
12897;BME280;6516;35.028;32.372;2023-02-20T06:50:07;100871.66;;;16.58;57.12
12897;BME280;6516;35.028;32.372;2023-02-20T06:52:35;100870.44;;;16.68;58.09
12897;BME280;6516;35.028;32.372;2023-02-20T06:55:04;100866.94;;;16.67;57.67
12897;BME280;6516;35.028;32.372;2023-02-20T06:57:32;100873.03;;;16.71;57.77
12897;BME280;6516;35.028;32.372;2023-02-20T07:00:01;100856.69;;;16.83;55.83
12897;BME280;6516;35.028;32.372;2023-02-20T07:02:30;100848.53;;;16.87;55.25
12897;BME280;6516;35.028;32.372;2023-02-20T07:04:59;100857.91;;;16.99;55.57
12897;BME280;6516;35.028;32.372;2023-02-20T07:07:27;100861.41;;;17.01;55.84
12897;BME280;6516;35.028;32.372;2023-02-20T07:09:55;100850.47;;;17.10;53.49
12897;BME280;6516;35.028;32.372;2023-02-20T07:12:24;100854.50;;;17.21;53.64
12897;BME280;6516;35.028;32.372;2023-02-20T07:14:52;100854.34;;;17.26;53.02
12897;BME280;6516;35.028;32.372;2023-02-20T07:17:21;100856.53;;;17.41;53.26
12897;BME280;6516;35.028;32.372;2023-02-20T07:19:49;100854.00;;;17.62;53.43
12897;BME280;6516;35.028;32.372;2023-02-20T07:22:17;100848.72;;;17.61;53.06
12897;BME280;6516;35.028;32.372;2023-02-20T07:24:49;100851.53;;;17.81;51.73
12897;BME280;6516;35.028;32.372;2023-02-20T07:27:18;100845.34;;;17.80;51.31
12897;BME280;6516;35.028;32.372;2023-02-20T07:29:46;100855.84;;;17.85;51.29
12897;BME280;6516;35.028;32.372;2023-02-20T07:32:16;100853.31;;;17.82;51.47
12897;BME280;6516;35.028;32.372;2023-02-20T07:34:46;100845.03;;;17.89;51.58
12897;BME280;6516;35.028;32.372;2023-02-20T07:37:14;100844.13;;;17.89;51.28
12897;BME280;6516;35.028;32.372;2023-02-20T07:39:42;100845.34;;;18.05;50.65
12897;BME280;6516;35.028;32.372;2023-02-20T07:42:10;100842.81;;;18.00;50.17
12897;BME280;6516;35.028;32.372;2023-02-20T07:44:38;100847.75;;;17.88;50.75
12897;BME280;6516;35.028;32.372;2023-02-20T07:47:06;100834.88;;;17.99;51.08
12897;BME280;6516;35.028;32.372;2023-02-20T07:49:33;100839.16;;;18.03;50.32
12897;BME280;6516;35.028;32.372;2023-02-20T07:52:03;100831.66;;;18.14;51.65
12897;BME280;6516;35.028;32.372;2023-02-20T07:54:31;100833.50;;;18.12;49.84
12897;BME280;6516;35.028;32.372;2023-02-20T07:56:59;100824.47;;;18.16;50.39
12897;BME280;6516;35.028;32.372;2023-02-20T07:59:27;100828.66;;;18.23;49.51
12897;BME280;6516;35.028;32.372;2023-02-20T08:01:54;100819.34;;;18.34;49.59
12897;BME280;6516;35.028;32.372;2023-02-20T08:04:22;100820.66;;;18.46;49.25
12897;BME280;6516;35.028;32.372;2023-02-20T08:06:50;100827.47;;;18.53;48.58
12897;BME280;6516;35.028;32.372;2023-02-20T08:09:19;100824.59;;;18.59;48.58
12897;BME280;6516;35.028;32.372;2023-02-20T08:11:47;100830.16;;;18.53;48.21
12897;BME280;6516;35.028;32.372;2023-02-20T08:14:15;100824.38;;;18.42;48.45
12897;BME280;6516;35.028;32.372;2023-02-20T08:16:43;100829.47;;;18.48;49.39
12897;BME280;6516;35.028;32.372;2023-02-20T08:19:11;100833.75;;;18.29;49.69
12897;BME280;6516;35.028;32.372;2023-02-20T08:21:38;100829.94;;;18.36;50.25
12897;BME280;6516;35.028;32.372;2023-02-20T08:24:06;100829.34;;;18.28;49.38
12897;BME280;6516;35.028;32.372;2023-02-20T08:26:42;100826.88;;;18.22;49.64
12897;BME280;6516;35.028;32.372;2023-02-20T08:29:10;100826.19;;;18.17;50.28
12897;BME280;6516;35.028;32.372;2023-02-20T08:31:38;100822.69;;;18.16;50.10
12897;BME280;6516;35.028;32.372;2023-02-20T08:34:06;100820.31;;;18.32;50.16
12897;BME280;6516;35.028;32.372;2023-02-20T08:36:34;100822.13;;;18.30;49.62
12897;BME280;6516;35.028;32.372;2023-02-20T08:39:02;100816.31;;;18.43;49.58
12897;BME280;6516;35.028;32.372;2023-02-20T08:41:30;100825.69;;;18.53;49.29
12897;BME280;6516;35.028;32.372;2023-02-20T08:43:59;100825.06;;;18.47;48.67
12897;BME280;6516;35.028;32.372;2023-02-20T08:46:26;100828.72;;;18.44;49.56
12897;BME280;6516;35.028;32.372;2023-02-20T08:48:54;100822.44;;;18.45;49.72
12897;BME280;6516;35.028;32.372;2023-02-20T08:51:22;100820.66;;;18.46;49.85
12897;BME280;6516;35.028;32.372;2023-02-20T08:53:51;100819.78;;;18.45;49.48
12897;BME280;6516;35.028;32.372;2023-02-20T08:56:19;100811.66;;;18.25;50.17
12897;BME280;6516;35.028;32.372;2023-02-20T08:58:47;100813.34;;;18.28;50.03
12897;BME280;6516;35.028;32.372;2023-02-20T09:01:17;100814.00;;;18.11;50.72
12897;BME280;6516;35.028;32.372;2023-02-20T09:03:44;100808.66;;;18.11;51.25
12897;BME280;6516;35.028;32.372;2023-02-20T09:06:13;100796.09;;;18.15;51.67
12897;BME280;6516;35.028;32.372;2023-02-20T09:08:41;100800.59;;;18.13;52.80
12897;BME280;6516;35.028;32.372;2023-02-20T09:11:09;100791.25;;;18.24;52.84
12897;BME280;6516;35.028;32.372;2023-02-20T09:13:41;100788.66;;;18.46;52.05
12897;BME280;6516;35.028;32.372;2023-02-20T09:16:09;100781.72;;;18.63;52.03
12897;BME280;6516;35.028;32.372;2023-02-20T09:18:38;100778.72;;;18.71;50.92
12897;BME280;6516;35.028;32.372;2023-02-20T09:21:08;100775.63;;;18.81;50.75
12897;BME280;6516;35.028;32.372;2023-02-20T09:23:37;100764.69;;;18.87;50.87
12897;BME280;6516;35.028;32.372;2023-02-20T09:26:06;100764.75;;;19.07;50.46
12897;BME280;6516;35.028;32.372;2023-02-20T09:28:34;100751.84;;;19.38;50.38
12897;BME280;6516;35.028;32.372;2023-02-20T09:31:02;100746.56;;;19.76;47.78
12897;BME280;6516;35.028;32.372;2023-02-20T09:33:30;100757.63;;;19.87;48.85
12897;BME280;6516;35.028;32.372;2023-02-20T09:35:59;100747.00;;;19.85;48.80
12897;BME280;6516;35.028;32.372;2023-02-20T09:38:27;100737.06;;;20.07;47.73
12897;BME280;6516;35.028;32.372;2023-02-20T09:40:57;100727.03;;;20.12;46.76
12897;BME280;6516;35.028;32.372;2023-02-20T09:43:35;100725.78;;;20.01;47.62
12897;BME280;6516;35.028;32.372;2023-02-20T09:46:11;100723.69;;;20.07;47.83
12897;BME280;6516;35.028;32.372;2023-02-20T09:48:52;100719.56;;;19.82;47.11
12897;BME280;6516;35.028;32.372;2023-02-20T09:51:30;100719.00;;;20.12;47.01
12897;BME280;6516;35.028;32.372;2023-02-20T09:54:02;100702.53;;;20.21;46.83
12897;BME280;6516;35.028;32.372;2023-02-20T09:56:35;100711.44;;;19.64;46.67
12897;BME280;6516;35.028;32.372;2023-02-20T09:59:09;100712.19;;;19.68;46.32
12897;BME280;6516;35.028;32.372;2023-02-20T10:01:42;100709.59;;;19.85;46.71
12897;BME280;6516;35.028;32.372;2023-02-20T10:04:21;100698.63;;;20.10;46.98
12897;BME280;6516;35.028;32.372;2023-02-20T10:06:55;100694.28;;;20.61;46.17
12897;BME280;6516;35.028;32.372;2023-02-20T10:09:28;100684.22;;;21.02;43.43
12897;BME280;6516;35.028;32.372;2023-02-20T10:12:12;100684.16;;;21.19;42.90
12897;BME280;6516;35.028;32.372;2023-02-20T10:15:02;100685.19;;;21.16;42.79
12897;BME280;6516;35.028;32.372;2023-02-20T10:17:45;100679.19;;;20.60;42.21
12897;BME280;6516;35.028;32.372;2023-02-20T10:20:24;100674.63;;;20.45;43.59
12897;BME280;6516;35.028;32.372;2023-02-20T10:23:00;100675.91;;;20.37;43.75
12897;BME280;6516;35.028;32.372;2023-02-20T10:25:34;100659.09;;;20.16;43.02
12897;BME280;6516;35.028;32.372;2023-02-20T10:28:08;100668.34;;;19.53;44.65
12897;BME280;6516;35.028;32.372;2023-02-20T10:30:42;100667.84;;;19.64;44.44
12897;BME280;6516;35.028;32.372;2023-02-20T10:33:20;100658.00;;;19.46;45.04
12897;BME280;6516;35.028;32.372;2023-02-20T10:35:57;100652.81;;;19.43;45.56
12897;BME280;6516;35.028;32.372;2023-02-20T10:38:34;100648.19;;;20.02;43.44
12897;BME280;6516;35.028;32.372;2023-02-20T10:41:09;100641.25;;;20.69;41.65
12897;BME280;6516;35.028;32.372;2023-02-20T10:43:45;100630.38;;;21.23;40.43
12897;BME280;6516;35.028;32.372;2023-02-20T10:46:19;100619.25;;;21.31;40.13
12897;BME280;6516;35.028;32.372;2023-02-20T10:48:53;100617.81;;;21.24;40.60
12897;BME280;6516;35.028;32.372;2023-02-20T10:51:27;100600.63;;;21.60;40.16
12897;BME280;6516;35.028;32.372;2023-02-20T10:54:03;100615.22;;;21.55;41.10
12897;BME280;6516;35.028;32.372;2023-02-20T10:56:40;100613.47;;;21.38;41.84
12897;BME280;6516;35.028;32.372;2023-02-20T10:59:17;100609.53;;;21.61;40.90
12897;BME280;6516;35.028;32.372;2023-02-20T11:01:50;100609.00;;;21.54;40.46
12897;BME280;6516;35.028;32.372;2023-02-20T11:04:22;100597.38;;;21.38;41.26
12897;BME280;6516;35.028;32.372;2023-02-20T11:06:56;100604.19;;;21.28;41.91
12897;BME280;6516;35.028;32.372;2023-02-20T11:09:27;100599.00;;;21.25;41.87
12897;BME280;6516;35.028;32.372;2023-02-20T11:11:55;100606.09;;;20.94;41.77
12897;BME280;6516;35.028;32.372;2023-02-20T11:14:27;100598.13;;;20.92;41.96
12897;BME280;6516;35.028;32.372;2023-02-20T11:17:00;100602.22;;;20.82;43.05
12897;BME280;6516;35.028;32.372;2023-02-20T11:19:37;100585.84;;;21.05;42.35
12897;BME280;6516;35.028;32.372;2023-02-20T11:22:07;100581.84;;;21.12;41.80
12897;BME280;6516;35.028;32.372;2023-02-20T11:24:37;100590.97;;;20.76;41.95
12897;BME280;6516;35.028;32.372;2023-02-20T11:27:08;100590.41;;;20.52;42.32
12897;BME280;6516;35.028;32.372;2023-02-20T11:29:41;100583.66;;;20.45;41.62
12897;BME280;6516;35.028;32.372;2023-02-20T11:32:27;100589.25;;;20.58;42.12
12897;BME280;6516;35.028;32.372;2023-02-20T11:35:11;100584.97;;;20.37;43.19
12897;BME280;6516;35.028;32.372;2023-02-20T11:37:42;100589.06;;;20.27;44.06
12897;BME280;6516;35.028;32.372;2023-02-20T11:40:18;100587.56;;;20.38;44.58
12897;BME280;6516;35.028;32.372;2023-02-20T11:42:50;100586.31;;;20.62;44.88
12897;BME280;6516;35.028;32.372;2023-02-20T11:45:22;100593.38;;;20.29;44.17
12897;BME280;6516;35.028;32.372;2023-02-20T11:48:07;100582.47;;;20.34;44.67
12897;BME280;6516;35.028;32.372;2023-02-20T11:50:40;100580.03;;;20.63;43.74
12897;BME280;6516;35.028;32.372;2023-02-20T11:53:18;100571.97;;;20.97;44.67
12897;BME280;6516;35.028;32.372;2023-02-20T11:55:48;100566.28;;;21.03;44.63
12897;BME280;6516;35.028;32.372;2023-02-20T11:58:32;100553.53;;;21.24;44.08
12897;BME280;6516;35.028;32.372;2023-02-20T12:01:00;100564.75;;;20.82;44.26
12897;BME280;6516;35.028;32.372;2023-02-20T12:03:29;100567.50;;;20.64;44.72
12897;BME280;6516;35.028;32.372;2023-02-20T12:06:00;100565.91;;;19.90;47.13
12897;BME280;6516;35.028;32.372;2023-02-20T12:08:42;100574.03;;;20.06;47.55
12897;BME280;6516;35.028;32.372;2023-02-20T12:11:20;100571.03;;;19.95;47.18
12897;BME280;6516;35.028;32.372;2023-02-20T12:13:51;100578.81;;;19.63;48.17
12897;BME280;6516;35.028;32.372;2023-02-20T12:16:27;100569.38;;;19.57;48.27
12897;BME280;6516;35.028;32.372;2023-02-20T12:19:05;100569.38;;;19.57;47.53
12897;BME280;6516;35.028;32.372;2023-02-20T12:21:49;100573.63;;;19.03;47.63
12897;BME280;6516;35.028;32.372;2023-02-20T12:24:46;100576.06;;;19.28;49.02
12897;BME280;6516;35.028;32.372;2023-02-20T12:27:43;100565.69;;;19.40;49.17
12897;BME280;6516;35.028;32.372;2023-02-20T12:30:32;100574.84;;;19.35;49.68
12897;BME280;6516;35.028;32.372;2023-02-20T12:33:23;100568.81;;;19.11;49.46
12897;BME280;6516;35.028;32.372;2023-02-20T12:36:12;100563.91;;;18.82;50.03
12897;BME280;6516;35.028;32.372;2023-02-20T12:38:49;100558.28;;;19.08;50.00
12897;BME280;6516;35.028;32.372;2023-02-20T12:41:30;100553.03;;;19.44;50.42
12897;BME280;6516;35.028;32.372;2023-02-20T12:44:27;100551.88;;;19.31;48.69
12897;BME280;6516;35.028;32.372;2023-02-20T12:47:27;100555.78;;;19.24;50.14
12897;BME280;6516;35.028;32.372;2023-02-20T12:50:17;100550.44;;;19.24;50.35
12897;BME280;6516;35.028;32.372;2023-02-20T12:53:19;100543.16;;;18.89;50.77
12897;BME280;6516;35.028;32.372;2023-02-20T12:56:02;100554.22;;;18.61;51.47
12897;BME280;6516;35.028;32.372;2023-02-20T12:58:44;100557.19;;;18.54;51.25
12897;BME280;6516;35.028;32.372;2023-02-20T13:01:19;100559.72;;;18.57;50.75
12897;BME280;6516;35.028;32.372;2023-02-20T13:03:59;100563.91;;;18.42;50.84
12897;BME280;6516;35.028;32.372;2023-02-20T13:06:37;100559.50;;;18.21;50.68
12897;BME280;6516;35.028;32.372;2023-02-20T13:09:17;100564.97;;;17.97;51.92
12897;BME280;6516;35.028;32.372;2023-02-20T13:11:50;100558.03;;;17.93;52.43
12897;BME280;6516;35.028;32.372;2023-02-20T13:14:33;100560.56;;;17.74;52.68
12897;BME280;6516;35.028;32.372;2023-02-20T13:17:19;100554.25;;;17.55;52.77
12897;BME280;6516;35.028;32.372;2023-02-20T13:19:55;100551.09;;;17.46;54.29
12897;BME280;6516;35.028;32.372;2023-02-20T13:22:26;100550.59;;;17.35;53.88
12897;BME280;6516;35.028;32.372;2023-02-20T13:28:22;100536.34;;;17.36;53.69
12897;BME280;6516;35.028;32.372;2023-02-20T13:31:15;100538.56;;;17.25;53.35
12897;BME280;6516;35.028;32.372;2023-02-20T13:33:47;100543.94;;;17.23;52.59